sensor_id;sensor_type;location;lat;lon;timestamp;P1;durP1;ratioP1;P2;durP2;ratioP2
69319;SDS011;56467;53.502;49.248;2023-07-20T00:01:11;4.00;;;1.75;;
69319;SDS011;56467;53.502;49.248;2023-07-20T00:03:37;2.50;;;1.60;;
69319;SDS011;56467;53.502;49.248;2023-07-20T00:06:02;3.50;;;1.50;;
69319;SDS011;56467;53.502;49.248;2023-07-20T00:08:29;3.47;;;1.50;;
69319;SDS011;56467;53.502;49.248;2023-07-20T00:10:55;3.05;;;1.65;;
69319;SDS011;56467;53.502;49.248;2023-07-20T00:13:21;2.33;;;1.50;;
69319;SDS011;56467;53.502;49.248;2023-07-20T00:15:47;2.60;;;1.40;;
69319;SDS011;56467;53.502;49.248;2023-07-20T00:18:13;2.03;;;1.65;;
69319;SDS011;56467;53.502;49.248;2023-07-20T00:20:38;3.38;;;1.60;;
69319;SDS011;56467;53.502;49.248;2023-07-20T00:23:04;2.38;;;1.60;;
69319;SDS011;56467;53.502;49.248;2023-07-20T00:25:30;1.48;;;1.25;;
69319;SDS011;56467;53.502;49.248;2023-07-20T00:27:56;2.08;;;1.38;;
69319;SDS011;56467;53.502;49.248;2023-07-20T00:30:22;1.80;;;1.60;;
69319;SDS011;56467;53.502;49.248;2023-07-20T00:32:47;1.90;;;1.40;;
69319;SDS011;56467;53.502;49.248;2023-07-20T00:35:13;2.88;;;1.35;;
69319;SDS011;56467;53.502;49.248;2023-07-20T00:37:39;2.75;;;1.50;;
69319;SDS011;56467;53.502;49.248;2023-07-20T00:40:05;2.15;;;1.20;;
69319;SDS011;56467;53.502;49.248;2023-07-20T00:42:32;2.63;;;1.67;;
69319;SDS011;56467;53.502;49.248;2023-07-20T00:44:58;2.38;;;1.38;;
69319;SDS011;56467;53.502;49.248;2023-07-20T00:47:24;2.22;;;1.38;;
69319;SDS011;56467;53.502;49.248;2023-07-20T00:49:50;2.15;;;1.40;;
69319;SDS011;56467;53.502;49.248;2023-07-20T00:52:16;1.42;;;1.10;;
69319;SDS011;56467;53.502;49.248;2023-07-20T00:54:45;1.83;;;1.33;;
69319;SDS011;56467;53.502;49.248;2023-07-20T00:57:13;1.73;;;1.20;;
69319;SDS011;56467;53.502;49.248;2023-07-20T00:59:40;1.77;;;1.23;;
69319;SDS011;56467;53.502;49.248;2023-07-20T01:02:06;1.60;;;1.40;;
69319;SDS011;56467;53.502;49.248;2023-07-20T01:04:31;1.65;;;1.10;;
69319;SDS011;56467;53.502;49.248;2023-07-20T01:07:06;1.60;;;1.27;;
69319;SDS011;56467;53.502;49.248;2023-07-20T01:15:12;1.52;;;1.20;;
69319;SDS011;56467;53.502;49.248;2023-07-20T01:17:38;1.27;;;1.17;;
69319;SDS011;56467;53.502;49.248;2023-07-20T01:20:04;1.48;;;1.08;;
69319;SDS011;56467;53.502;49.248;2023-07-20T01:22:59;1.67;;;1.20;;
69319;SDS011;56467;53.502;49.248;2023-07-20T01:31:17;1.67;;;1.30;;
69319;SDS011;56467;53.502;49.248;2023-07-20T01:33:46;2.53;;;1.23;;
69319;SDS011;56467;53.502;49.248;2023-07-20T01:36:13;1.33;;;1.20;;
69319;SDS011;56467;53.502;49.248;2023-07-20T01:38:41;1.73;;;1.15;;
69319;SDS011;56467;53.502;49.248;2023-07-20T01:41:07;1.27;;;1.15;;
69319;SDS011;56467;53.502;49.248;2023-07-20T01:43:34;3.15;;;1.30;;
69319;SDS011;56467;53.502;49.248;2023-07-20T01:45:59;2.72;;;1.40;;
69319;SDS011;56467;53.502;49.248;2023-07-20T01:48:25;2.47;;;1.30;;
69319;SDS011;56467;53.502;49.248;2023-07-20T01:50:51;1.65;;;1.10;;
69319;SDS011;56467;53.502;49.248;2023-07-20T01:53:17;1.73;;;1.20;;
69319;SDS011;56467;53.502;49.248;2023-07-20T01:55:43;1.80;;;1.20;;
69319;SDS011;56467;53.502;49.248;2023-07-20T01:58:08;1.55;;;1.00;;
69319;SDS011;56467;53.502;49.248;2023-07-20T02:00:36;1.40;;;1.20;;
69319;SDS011;56467;53.502;49.248;2023-07-20T02:03:02;1.90;;;1.20;;
69319;SDS011;56467;53.502;49.248;2023-07-20T02:05:28;2.38;;;1.40;;
69319;SDS011;56467;53.502;49.248;2023-07-20T02:07:54;1.42;;;1.20;;
69319;SDS011;56467;53.502;49.248;2023-07-20T02:10:19;1.25;;;1.15;;
69319;SDS011;56467;53.502;49.248;2023-07-20T02:12:45;1.25;;;1.10;;
69319;SDS011;56467;53.502;49.248;2023-07-20T02:15:11;1.70;;;1.15;;
69319;SDS011;56467;53.502;49.248;2023-07-20T02:17:38;1.90;;;1.40;;
69319;SDS011;56467;53.502;49.248;2023-07-20T02:20:06;1.63;;;1.15;;
69319;SDS011;56467;53.502;49.248;2023-07-20T02:22:36;1.77;;;1.30;;
69319;SDS011;56467;53.502;49.248;2023-07-20T02:25:06;1.95;;;1.10;;
69319;SDS011;56467;53.502;49.248;2023-07-20T02:27:32;1.85;;;1.08;;
69319;SDS011;56467;53.502;49.248;2023-07-20T02:29:59;2.97;;;1.13;;
69319;SDS011;56467;53.502;49.248;2023-07-20T02:32:24;1.33;;;1.10;;
69319;SDS011;56467;53.502;49.248;2023-07-20T02:34:50;1.20;;;1.10;;
69319;SDS011;56467;53.502;49.248;2023-07-20T02:37:16;1.35;;;1.23;;
69319;SDS011;56467;53.502;49.248;2023-07-20T02:39:42;1.70;;;1.17;;
69319;SDS011;56467;53.502;49.248;2023-07-20T02:42:08;2.05;;;1.15;;
69319;SDS011;56467;53.502;49.248;2023-07-20T02:44:33;1.50;;;1.27;;
69319;SDS011;56467;53.502;49.248;2023-07-20T02:46:59;1.17;;;1.02;;
69319;SDS011;56467;53.502;49.248;2023-07-20T02:49:25;1.60;;;1.10;;
69319;SDS011;56467;53.502;49.248;2023-07-20T02:51:50;1.63;;;1.15;;
69319;SDS011;56467;53.502;49.248;2023-07-20T02:54:16;1.30;;;1.10;;
69319;SDS011;56467;53.502;49.248;2023-07-20T02:56:41;2.10;;;1.20;;
69319;SDS011;56467;53.502;49.248;2023-07-20T02:59:07;1.33;;;1.00;;
69319;SDS011;56467;53.502;49.248;2023-07-20T03:01:33;1.60;;;1.30;;
69319;SDS011;56467;53.502;49.248;2023-07-20T03:03:59;2.55;;;1.10;;
69319;SDS011;56467;53.502;49.248;2023-07-20T03:06:25;1.95;;;1.27;;
69319;SDS011;56467;53.502;49.248;2023-07-20T03:08:50;2.00;;;1.20;;
69319;SDS011;56467;53.502;49.248;2023-07-20T03:11:18;3.55;;;1.20;;
69319;SDS011;56467;53.502;49.248;2023-07-20T03:13:46;1.23;;;1.10;;
69319;SDS011;56467;53.502;49.248;2023-07-20T03:16:13;1.48;;;1.10;;
69319;SDS011;56467;53.502;49.248;2023-07-20T03:18:44;2.13;;;1.10;;
69319;SDS011;56467;53.502;49.248;2023-07-20T03:21:10;1.33;;;1.20;;
69319;SDS011;56467;53.502;49.248;2023-07-20T03:23:39;1.40;;;1.30;;
69319;SDS011;56467;53.502;49.248;2023-07-20T03:26:05;1.20;;;1.10;;
69319;SDS011;56467;53.502;49.248;2023-07-20T03:28:33;1.60;;;1.10;;
69319;SDS011;56467;53.502;49.248;2023-07-20T03:30:59;2.13;;;1.27;;
69319;SDS011;56467;53.502;49.248;2023-07-20T03:33:25;1.73;;;1.25;;
69319;SDS011;56467;53.502;49.248;2023-07-20T03:35:52;2.75;;;1.35;;
69319;SDS011;56467;53.502;49.248;2023-07-20T03:38:19;2.22;;;1.30;;
69319;SDS011;56467;53.502;49.248;2023-07-20T03:40:51;2.28;;;1.25;;
69319;SDS011;56467;53.502;49.248;2023-07-20T03:43:18;1.75;;;1.30;;
69319;SDS011;56467;53.502;49.248;2023-07-20T03:45:44;1.73;;;1.20;;
69319;SDS011;56467;53.502;49.248;2023-07-20T03:48:14;1.55;;;1.25;;
69319;SDS011;56467;53.502;49.248;2023-07-20T03:50:41;2.03;;;1.40;;
69319;SDS011;56467;53.502;49.248;2023-07-20T03:53:06;1.60;;;1.50;;
69319;SDS011;56467;53.502;49.248;2023-07-20T03:55:32;2.08;;;1.50;;
69319;SDS011;56467;53.502;49.248;2023-07-20T03:57:58;2.65;;;1.55;;
69319;SDS011;56467;53.502;49.248;2023-07-20T04:00:23;2.22;;;1.35;;
69319;SDS011;56467;53.502;49.248;2023-07-20T04:02:49;1.63;;;1.35;;
69319;SDS011;56467;53.502;49.248;2023-07-20T04:05:15;1.95;;;1.48;;
69319;SDS011;56467;53.502;49.248;2023-07-20T04:07:40;2.80;;;1.60;;
69319;SDS011;56467;53.502;49.248;2023-07-20T04:10:06;2.78;;;1.55;;
69319;SDS011;56467;53.502;49.248;2023-07-20T04:12:32;1.85;;;1.45;;
69319;SDS011;56467;53.502;49.248;2023-07-20T04:14:58;2.33;;;1.52;;
69319;SDS011;56467;53.502;49.248;2023-07-20T04:17:23;2.15;;;1.50;;
69319;SDS011;56467;53.502;49.248;2023-07-20T04:19:49;2.45;;;1.42;;
69319;SDS011;56467;53.502;49.248;2023-07-20T04:22:15;2.03;;;1.65;;
69319;SDS011;56467;53.502;49.248;2023-07-20T04:24:41;2.92;;;1.50;;
69319;SDS011;56467;53.502;49.248;2023-07-20T04:27:07;2.88;;;1.60;;
69319;SDS011;56467;53.502;49.248;2023-07-20T04:29:33;2.20;;;1.77;;
69319;SDS011;56467;53.502;49.248;2023-07-20T04:31:59;2.65;;;1.63;;
69319;SDS011;56467;53.502;49.248;2023-07-20T04:34:25;2.70;;;1.75;;
69319;SDS011;56467;53.502;49.248;2023-07-20T04:36:51;3.03;;;1.52;;
69319;SDS011;56467;53.502;49.248;2023-07-20T04:39:16;2.70;;;1.80;;
69319;SDS011;56467;53.502;49.248;2023-07-20T04:41:42;3.55;;;1.90;;
69319;SDS011;56467;53.502;49.248;2023-07-20T04:44:08;2.63;;;1.80;;
69319;SDS011;56467;53.502;49.248;2023-07-20T04:46:34;2.47;;;1.98;;
69319;SDS011;56467;53.502;49.248;2023-07-20T04:48:59;1.95;;;1.70;;
69319;SDS011;56467;53.502;49.248;2023-07-20T04:51:26;3.47;;;2.10;;
69319;SDS011;56467;53.502;49.248;2023-07-20T04:53:52;3.95;;;1.80;;
69319;SDS011;56467;53.502;49.248;2023-07-20T04:56:18;2.45;;;1.80;;
69319;SDS011;56467;53.502;49.248;2023-07-20T04:58:43;3.50;;;2.05;;
69319;SDS011;56467;53.502;49.248;2023-07-20T05:01:10;3.15;;;2.08;;
69319;SDS011;56467;53.502;49.248;2023-07-20T05:03:36;3.50;;;1.80;;
69319;SDS011;56467;53.502;49.248;2023-07-20T05:06:01;3.50;;;1.73;;
69319;SDS011;56467;53.502;49.248;2023-07-20T05:08:27;3.15;;;2.08;;
69319;SDS011;56467;53.502;49.248;2023-07-20T05:10:53;3.78;;;2.15;;
69319;SDS011;56467;53.502;49.248;2023-07-20T05:13:18;2.85;;;2.08;;
69319;SDS011;56467;53.502;49.248;2023-07-20T05:15:44;3.72;;;2.20;;
69319;SDS011;56467;53.502;49.248;2023-07-20T05:18:09;3.55;;;2.10;;
69319;SDS011;56467;53.502;49.248;2023-07-20T05:20:35;3.35;;;2.17;;
69319;SDS011;56467;53.502;49.248;2023-07-20T05:23:02;2.28;;;2.00;;
69319;SDS011;56467;53.502;49.248;2023-07-20T05:25:28;2.80;;;1.90;;
69319;SDS011;56467;53.502;49.248;2023-07-20T05:27:53;4.13;;;2.13;;
69319;SDS011;56467;53.502;49.248;2023-07-20T05:30:20;3.00;;;2.20;;
69319;SDS011;56467;53.502;49.248;2023-07-20T05:32:46;4.03;;;2.30;;
69319;SDS011;56467;53.502;49.248;2023-07-20T05:35:16;2.95;;;2.30;;
69319;SDS011;56467;53.502;49.248;2023-07-20T05:37:43;4.65;;;2.60;;
69319;SDS011;56467;53.502;49.248;2023-07-20T05:40:10;3.13;;;2.25;;
69319;SDS011;56467;53.502;49.248;2023-07-20T05:42:37;3.17;;;2.33;;
69319;SDS011;56467;53.502;49.248;2023-07-20T05:45:04;4.80;;;2.50;;
69319;SDS011;56467;53.502;49.248;2023-07-20T05:47:30;3.83;;;2.40;;
69319;SDS011;56467;53.502;49.248;2023-07-20T05:49:57;5.15;;;2.30;;
69319;SDS011;56467;53.502;49.248;2023-07-20T05:52:22;3.63;;;2.58;;
69319;SDS011;56467;53.502;49.248;2023-07-20T05:54:48;4.10;;;2.38;;
69319;SDS011;56467;53.502;49.248;2023-07-20T05:57:14;3.88;;;2.55;;
69319;SDS011;56467;53.502;49.248;2023-07-20T05:59:39;3.53;;;2.35;;
69319;SDS011;56467;53.502;49.248;2023-07-20T06:02:09;3.42;;;2.58;;
69319;SDS011;56467;53.502;49.248;2023-07-20T06:04:35;3.45;;;2.35;;
69319;SDS011;56467;53.502;49.248;2023-07-20T06:07:00;4.05;;;2.50;;
69319;SDS011;56467;53.502;49.248;2023-07-20T06:09:26;3.38;;;2.30;;
69319;SDS011;56467;53.502;49.248;2023-07-20T06:11:53;3.53;;;2.42;;
69319;SDS011;56467;53.502;49.248;2023-07-20T06:14:18;4.40;;;2.60;;
69319;SDS011;56467;53.502;49.248;2023-07-20T06:16:44;4.60;;;2.65;;
69319;SDS011;56467;53.502;49.248;2023-07-20T06:19:10;4.10;;;2.28;;
69319;SDS011;56467;53.502;49.248;2023-07-20T06:21:38;3.20;;;2.38;;
69319;SDS011;56467;53.502;49.248;2023-07-20T06:24:04;3.13;;;2.35;;
69319;SDS011;56467;53.502;49.248;2023-07-20T06:26:30;3.78;;;2.40;;
69319;SDS011;56467;53.502;49.248;2023-07-20T06:29:01;3.17;;;2.47;;
69319;SDS011;56467;53.502;49.248;2023-07-20T06:31:27;2.95;;;2.53;;
69319;SDS011;56467;53.502;49.248;2023-07-20T06:33:53;4.28;;;2.60;;
69319;SDS011;56467;53.502;49.248;2023-07-20T06:36:19;5.80;;;2.40;;
69319;SDS011;56467;53.502;49.248;2023-07-20T06:38:44;3.55;;;2.42;;
69319;SDS011;56467;53.502;49.248;2023-07-20T06:41:10;4.30;;;2.40;;
69319;SDS011;56467;53.502;49.248;2023-07-20T06:43:35;2.95;;;2.20;;
69319;SDS011;56467;53.502;49.248;2023-07-20T06:46:01;3.20;;;2.20;;
69319;SDS011;56467;53.502;49.248;2023-07-20T06:48:27;3.10;;;2.28;;
69319;SDS011;56467;53.502;49.248;2023-07-20T06:50:52;3.42;;;2.08;;
69319;SDS011;56467;53.502;49.248;2023-07-20T06:53:19;3.20;;;2.40;;
69319;SDS011;56467;53.502;49.248;2023-07-20T06:55:44;2.80;;;2.10;;
69319;SDS011;56467;53.502;49.248;2023-07-20T06:58:13;3.63;;;2.30;;
69319;SDS011;56467;53.502;49.248;2023-07-20T07:00:39;2.95;;;2.10;;
69319;SDS011;56467;53.502;49.248;2023-07-20T07:03:05;2.78;;;1.90;;
69319;SDS011;56467;53.502;49.248;2023-07-20T07:05:30;2.83;;;1.92;;
69319;SDS011;56467;53.502;49.248;2023-07-20T07:07:56;2.70;;;1.95;;
69319;SDS011;56467;53.502;49.248;2023-07-20T07:10:22;3.28;;;2.00;;
69319;SDS011;56467;53.502;49.248;2023-07-20T07:12:47;3.58;;;2.10;;
69319;SDS011;56467;53.502;49.248;2023-07-20T07:15:13;2.80;;;1.80;;
69319;SDS011;56467;53.502;49.248;2023-07-20T07:17:39;3.42;;;2.00;;
69319;SDS011;56467;53.502;49.248;2023-07-20T07:20:05;2.72;;;2.00;;
69319;SDS011;56467;53.502;49.248;2023-07-20T07:22:32;4.28;;;2.20;;
69319;SDS011;56467;53.502;49.248;2023-07-20T07:24:58;4.90;;;2.95;;
69319;SDS011;56467;53.502;49.248;2023-07-20T07:27:23;5.38;;;2.80;;
69319;SDS011;56467;53.502;49.248;2023-07-20T07:29:49;5.47;;;2.70;;
69319;SDS011;56467;53.502;49.248;2023-07-20T07:32:15;5.47;;;2.78;;
69319;SDS011;56467;53.502;49.248;2023-07-20T07:34:41;4.10;;;2.63;;
69319;SDS011;56467;53.502;49.248;2023-07-20T07:37:11;3.83;;;2.58;;
69319;SDS011;56467;53.502;49.248;2023-07-20T07:39:37;4.60;;;2.50;;
69319;SDS011;56467;53.502;49.248;2023-07-20T07:42:03;4.30;;;2.50;;
69319;SDS011;56467;53.502;49.248;2023-07-20T07:44:29;3.72;;;2.33;;
69319;SDS011;56467;53.502;49.248;2023-07-20T07:46:55;5.88;;;2.40;;
69319;SDS011;56467;53.502;49.248;2023-07-20T07:49:20;2.92;;;2.25;;
69319;SDS011;56467;53.502;49.248;2023-07-20T07:51:46;3.33;;;2.40;;
69319;SDS011;56467;53.502;49.248;2023-07-20T07:54:12;4.20;;;2.25;;
69319;SDS011;56467;53.502;49.248;2023-07-20T07:56:37;3.03;;;2.10;;
69319;SDS011;56467;53.502;49.248;2023-07-20T07:59:03;3.83;;;2.15;;
69319;SDS011;56467;53.502;49.248;2023-07-20T08:01:29;2.90;;;2.00;;
69319;SDS011;56467;53.502;49.248;2023-07-20T08:03:55;3.92;;;2.17;;
69319;SDS011;56467;53.502;49.248;2023-07-20T08:06:21;3.08;;;2.00;;
69319;SDS011;56467;53.502;49.248;2023-07-20T08:08:48;3.53;;;2.10;;
69319;SDS011;56467;53.502;49.248;2023-07-20T08:11:14;2.83;;;1.80;;
69319;SDS011;56467;53.502;49.248;2023-07-20T08:13:40;4.50;;;2.00;;
69319;SDS011;56467;53.502;49.248;2023-07-20T08:16:06;4.25;;;2.10;;
69319;SDS011;56467;53.502;49.248;2023-07-20T08:18:32;3.67;;;2.10;;
69319;SDS011;56467;53.502;49.248;2023-07-20T08:20:58;2.80;;;1.85;;
69319;SDS011;56467;53.502;49.248;2023-07-20T08:23:23;2.78;;;1.80;;
69319;SDS011;56467;53.502;49.248;2023-07-20T08:25:49;3.42;;;2.08;;
69319;SDS011;56467;53.502;49.248;2023-07-20T08:28:15;2.78;;;1.73;;
69319;SDS011;56467;53.502;49.248;2023-07-20T08:30:42;3.53;;;1.90;;
69319;SDS011;56467;53.502;49.248;2023-07-20T08:33:10;2.85;;;1.70;;
69319;SDS011;56467;53.502;49.248;2023-07-20T08:35:38;3.40;;;1.92;;
69319;SDS011;56467;53.502;49.248;2023-07-20T08:38:03;4.47;;;1.98;;
69319;SDS011;56467;53.502;49.248;2023-07-20T08:40:32;2.58;;;1.80;;
69319;SDS011;56467;53.502;49.248;2023-07-20T08:42:59;2.38;;;1.73;;
69319;SDS011;56467;53.502;49.248;2023-07-20T08:45:26;2.90;;;1.70;;
69319;SDS011;56467;53.502;49.248;2023-07-20T08:47:57;4.75;;;2.05;;
69319;SDS011;56467;53.502;49.248;2023-07-20T08:50:25;2.33;;;1.90;;
69319;SDS011;56467;53.502;49.248;2023-07-20T08:52:52;3.03;;;1.70;;
69319;SDS011;56467;53.502;49.248;2023-07-20T08:55:19;3.03;;;1.95;;
69319;SDS011;56467;53.502;49.248;2023-07-20T08:57:48;9.20;;;5.47;;
69319;SDS011;56467;53.502;49.248;2023-07-20T09:00:16;13.23;;;7.45;;
69319;SDS011;56467;53.502;49.248;2023-07-20T09:02:45;11.48;;;6.70;;
69319;SDS011;56467;53.502;49.248;2023-07-20T09:05:11;11.95;;;6.63;;
69319;SDS011;56467;53.502;49.248;2023-07-20T09:07:39;10.57;;;6.13;;
69319;SDS011;56467;53.502;49.248;2023-07-20T09:10:05;9.15;;;5.72;;
69319;SDS011;56467;53.502;49.248;2023-07-20T09:12:34;10.18;;;5.50;;
69319;SDS011;56467;53.502;49.248;2023-07-20T09:15:01;7.80;;;4.78;;
69319;SDS011;56467;53.502;49.248;2023-07-20T09:17:27;8.43;;;4.43;;
69319;SDS011;56467;53.502;49.248;2023-07-20T09:19:53;10.60;;;4.18;;
69319;SDS011;56467;53.502;49.248;2023-07-20T09:22:19;7.68;;;4.40;;
69319;SDS011;56467;53.502;49.248;2023-07-20T09:24:44;6.13;;;3.95;;
69319;SDS011;56467;53.502;49.248;2023-07-20T09:27:10;7.10;;;3.95;;
69319;SDS011;56467;53.502;49.248;2023-07-20T09:29:49;5.88;;;3.60;;
69319;SDS011;56467;53.502;49.248;2023-07-20T09:32:17;5.38;;;3.58;;
69319;SDS011;56467;53.502;49.248;2023-07-20T09:34:45;5.68;;;3.45;;
69319;SDS011;56467;53.502;49.248;2023-07-20T09:37:11;4.72;;;3.30;;
69319;SDS011;56467;53.502;49.248;2023-07-20T09:39:44;5.97;;;3.17;;
69319;SDS011;56467;53.502;49.248;2023-07-20T09:42:11;6.40;;;3.38;;
69319;SDS011;56467;53.502;49.248;2023-07-20T09:44:38;7.00;;;3.53;;
69319;SDS011;56467;53.502;49.248;2023-07-20T09:47:05;6.07;;;3.08;;
69319;SDS011;56467;53.502;49.248;2023-07-20T09:49:31;4.88;;;3.05;;
69319;SDS011;56467;53.502;49.248;2023-07-20T09:51:59;4.70;;;2.72;;
69319;SDS011;56467;53.502;49.248;2023-07-20T09:54:27;5.40;;;3.03;;
69319;SDS011;56467;53.502;49.248;2023-07-20T09:56:54;4.85;;;3.00;;
69319;SDS011;56467;53.502;49.248;2023-07-20T09:59:21;4.32;;;2.90;;
69319;SDS011;56467;53.502;49.248;2023-07-20T10:01:47;3.45;;;2.50;;
69319;SDS011;56467;53.502;49.248;2023-07-20T10:04:14;3.13;;;2.38;;
69319;SDS011;56467;53.502;49.248;2023-07-20T10:06:44;3.60;;;2.40;;
69319;SDS011;56467;53.502;49.248;2023-07-20T10:09:12;3.25;;;2.40;;
69319;SDS011;56467;53.502;49.248;2023-07-20T10:11:41;3.35;;;2.35;;
69319;SDS011;56467;53.502;49.248;2023-07-20T10:14:11;3.33;;;2.28;;
69319;SDS011;56467;53.502;49.248;2023-07-20T10:16:46;4.45;;;2.45;;
69319;SDS011;56467;53.502;49.248;2023-07-20T10:21:51;2.90;;;2.10;;
69319;SDS011;56467;53.502;49.248;2023-07-20T10:24:27;3.13;;;2.13;;
69319;SDS011;56467;53.502;49.248;2023-07-20T10:26:53;3.33;;;2.00;;
69319;SDS011;56467;53.502;49.248;2023-07-20T10:29:20;4.15;;;1.90;;
69319;SDS011;56467;53.502;49.248;2023-07-20T10:31:46;4.55;;;2.35;;
69319;SDS011;56467;53.502;49.248;2023-07-20T10:34:13;3.30;;;2.10;;
69319;SDS011;56467;53.502;49.248;2023-07-20T10:36:45;3.97;;;1.90;;
69319;SDS011;56467;53.502;49.248;2023-07-20T10:39:24;5.22;;;2.30;;
69319;SDS011;56467;53.502;49.248;2023-07-20T10:42:02;2.80;;;1.88;;
69319;SDS011;56467;53.502;49.248;2023-07-20T10:44:29;5.35;;;1.80;;
69319;SDS011;56467;53.502;49.248;2023-07-20T10:46:59;2.75;;;1.80;;
69319;SDS011;56467;53.502;49.248;2023-07-20T10:49:32;4.15;;;1.70;;
69319;SDS011;56467;53.502;49.248;2023-07-20T10:52:00;4.30;;;1.90;;
69319;SDS011;56467;53.502;49.248;2023-07-20T10:56:56;5.85;;;3.22;;
69319;SDS011;56467;53.502;49.248;2023-07-20T11:01:48;5.55;;;3.28;;
69319;SDS011;56467;53.502;49.248;2023-07-20T11:04:15;7.20;;;3.53;;
69319;SDS011;56467;53.502;49.248;2023-07-20T11:06:44;7.97;;;4.10;;
69319;SDS011;56467;53.502;49.248;2023-07-20T11:09:22;9.63;;;5.35;;
69319;SDS011;56467;53.502;49.248;2023-07-20T11:11:50;9.75;;;5.18;;
69319;SDS011;56467;53.502;49.248;2023-07-20T11:14:54;6.90;;;4.40;;
69319;SDS011;56467;53.502;49.248;2023-07-20T11:17:30;8.20;;;4.75;;
69319;SDS011;56467;53.502;49.248;2023-07-20T11:19:57;8.35;;;4.25;;
69319;SDS011;56467;53.502;49.248;2023-07-20T11:22:27;7.18;;;4.20;;
69319;SDS011;56467;53.502;49.248;2023-07-20T11:24:55;7.43;;;3.78;;
69319;SDS011;56467;53.502;49.248;2023-07-20T11:27:22;9.27;;;4.93;;
69319;SDS011;56467;53.502;49.248;2023-07-20T11:29:48;11.85;;;6.38;;
69319;SDS011;56467;53.502;49.248;2023-07-20T11:32:20;13.45;;;7.53;;
69319;SDS011;56467;53.502;49.248;2023-07-20T11:34:47;10.90;;;7.50;;
69319;SDS011;56467;53.502;49.248;2023-07-20T11:37:13;13.27;;;7.25;;
69319;SDS011;56467;53.502;49.248;2023-07-20T11:39:39;10.45;;;6.88;;
69319;SDS011;56467;53.502;49.248;2023-07-20T11:42:05;11.23;;;6.90;;
69319;SDS011;56467;53.502;49.248;2023-07-20T11:44:31;11.85;;;6.60;;
69319;SDS011;56467;53.502;49.248;2023-07-20T11:47:07;10.38;;;6.07;;
69319;SDS011;56467;53.502;49.248;2023-07-20T11:49:43;16.92;;;7.43;;
69319;SDS011;56467;53.502;49.248;2023-07-20T11:52:14;23.35;;;10.27;;
69319;SDS011;56467;53.502;49.248;2023-07-20T11:54:42;28.77;;;13.20;;
69319;SDS011;56467;53.502;49.248;2023-07-20T11:57:20;33.65;;;14.07;;
69319;SDS011;56467;53.502;49.248;2023-07-20T11:59:53;34.30;;;13.95;;
69319;SDS011;56467;53.502;49.248;2023-07-20T12:02:24;28.50;;;11.98;;
69319;SDS011;56467;53.502;49.248;2023-07-20T12:04:51;28.30;;;11.85;;
69319;SDS011;56467;53.502;49.248;2023-07-20T12:07:18;27.95;;;12.40;;
69319;SDS011;56467;53.502;49.248;2023-07-20T12:09:44;25.92;;;12.30;;
69319;SDS011;56467;53.502;49.248;2023-07-20T12:12:11;29.08;;;12.85;;
69319;SDS011;56467;53.502;49.248;2023-07-20T12:14:37;26.75;;;12.40;;
69319;SDS011;56467;53.502;49.248;2023-07-20T12:17:03;23.13;;;11.43;;
69319;SDS011;56467;53.502;49.248;2023-07-20T12:19:28;23.55;;;11.05;;
69319;SDS011;56467;53.502;49.248;2023-07-20T12:21:57;22.10;;;10.43;;
69319;SDS011;56467;53.502;49.248;2023-07-20T12:24:24;21.25;;;10.38;;
69319;SDS011;56467;53.502;49.248;2023-07-20T12:26:55;20.33;;;9.45;;
69319;SDS011;56467;53.502;49.248;2023-07-20T12:29:23;17.88;;;8.65;;
69319;SDS011;56467;53.502;49.248;2023-07-20T12:31:49;18.48;;;9.02;;
69319;SDS011;56467;53.502;49.248;2023-07-20T12:34:14;18.02;;;8.18;;
69319;SDS011;56467;53.502;49.248;2023-07-20T12:36:40;16.50;;;8.15;;
69319;SDS011;56467;53.502;49.248;2023-07-20T12:39:06;17.20;;;7.82;;
69319;SDS011;56467;53.502;49.248;2023-07-20T12:41:31;14.88;;;7.03;;
69319;SDS011;56467;53.502;49.248;2023-07-20T12:43:57;13.65;;;7.05;;
69319;SDS011;56467;53.502;49.248;2023-07-20T12:46:23;13.82;;;6.95;;
69319;SDS011;56467;53.502;49.248;2023-07-20T12:48:49;15.63;;;6.65;;
69319;SDS011;56467;53.502;49.248;2023-07-20T12:51:15;14.13;;;6.03;;
69319;SDS011;56467;53.502;49.248;2023-07-20T12:53:40;13.70;;;6.15;;
69319;SDS011;56467;53.502;49.248;2023-07-20T12:56:06;11.13;;;5.60;;
69319;SDS011;56467;53.502;49.248;2023-07-20T12:58:32;11.05;;;5.45;;
69319;SDS011;56467;53.502;49.248;2023-07-20T13:00:57;22.27;;;10.25;;
69319;SDS011;56467;53.502;49.248;2023-07-20T13:03:23;68.57;;;33.95;;
69319;SDS011;56467;53.502;49.248;2023-07-20T13:05:49;87.53;;;46.75;;
69319;SDS011;56467;53.502;49.248;2023-07-20T13:08:15;88.32;;;46.83;;
69319;SDS011;56467;53.502;49.248;2023-07-20T13:10:41;86.65;;;45.03;;
69319;SDS011;56467;53.502;49.248;2023-07-20T13:13:07;85.05;;;44.22;;
69319;SDS011;56467;53.502;49.248;2023-07-20T13:15:39;83.35;;;42.97;;
69319;SDS011;56467;53.502;49.248;2023-07-20T13:18:07;79.70;;;40.55;;
69319;SDS011;56467;53.502;49.248;2023-07-20T13:20:32;73.60;;;37.45;;
69319;SDS011;56467;53.502;49.248;2023-07-20T13:22:58;68.50;;;33.88;;
69319;SDS011;56467;53.502;49.248;2023-07-20T13:25:24;60.42;;;30.90;;
69319;SDS011;56467;53.502;49.248;2023-07-20T13:27:50;57.60;;;29.33;;
69319;SDS011;56467;53.502;49.248;2023-07-20T13:30:15;53.53;;;27.25;;
69319;SDS011;56467;53.502;49.248;2023-07-20T13:32:44;49.83;;;26.48;;
69319;SDS011;56467;53.502;49.248;2023-07-20T13:35:11;50.78;;;24.40;;
69319;SDS011;56467;53.502;49.248;2023-07-20T13:37:37;46.53;;;22.98;;
69319;SDS011;56467;53.502;49.248;2023-07-20T13:40:03;43.03;;;22.30;;
69319;SDS011;56467;53.502;49.248;2023-07-20T13:42:30;37.55;;;20.20;;
69319;SDS011;56467;53.502;49.248;2023-07-20T13:44:56;40.95;;;20.45;;
69319;SDS011;56467;53.502;49.248;2023-07-20T13:47:22;37.45;;;19.58;;
69319;SDS011;56467;53.502;49.248;2023-07-20T13:49:48;34.65;;;18.25;;
69319;SDS011;56467;53.502;49.248;2023-07-20T13:52:14;34.42;;;17.63;;
69319;SDS011;56467;53.502;49.248;2023-07-20T13:54:40;33.65;;;16.55;;
69319;SDS011;56467;53.502;49.248;2023-07-20T13:57:05;28.98;;;16.13;;
69319;SDS011;56467;53.502;49.248;2023-07-20T13:59:31;29.20;;;15.73;;
69319;SDS011;56467;53.502;49.248;2023-07-20T14:01:57;28.90;;;15.48;;
69319;SDS011;56467;53.502;49.248;2023-07-20T14:04:22;28.27;;;14.20;;
69319;SDS011;56467;53.502;49.248;2023-07-20T14:06:48;26.08;;;13.88;;
69319;SDS011;56467;53.502;49.248;2023-07-20T14:09:15;22.92;;;13.32;;
69319;SDS011;56467;53.502;49.248;2023-07-20T14:11:40;24.58;;;13.70;;
69319;SDS011;56467;53.502;49.248;2023-07-20T14:14:06;22.02;;;12.25;;
69319;SDS011;56467;53.502;49.248;2023-07-20T14:16:32;23.40;;;12.23;;
69319;SDS011;56467;53.502;49.248;2023-07-20T14:18:58;21.58;;;11.95;;
69319;SDS011;56467;53.502;49.248;2023-07-20T14:21:24;21.45;;;11.57;;
69319;SDS011;56467;53.502;49.248;2023-07-20T14:23:51;17.90;;;10.40;;
69319;SDS011;56467;53.502;49.248;2023-07-20T14:26:20;16.63;;;9.90;;
69319;SDS011;56467;53.502;49.248;2023-07-20T14:28:46;19.73;;;10.20;;
69319;SDS011;56467;53.502;49.248;2023-07-20T14:31:12;17.08;;;9.52;;
69319;SDS011;56467;53.502;49.248;2023-07-20T14:33:38;19.75;;;9.02;;
69319;SDS011;56467;53.502;49.248;2023-07-20T14:36:04;27.95;;;15.48;;
69319;SDS011;56467;53.502;49.248;2023-07-20T14:38:30;49.33;;;26.98;;
69319;SDS011;56467;53.502;49.248;2023-07-20T14:40:57;49.88;;;28.13;;
69319;SDS011;56467;53.502;49.248;2023-07-20T14:43:22;51.20;;;28.63;;
69319;SDS011;56467;53.502;49.248;2023-07-20T14:45:48;51.63;;;26.50;;